San Jose Del Cabo, Mexique

16:03 MDT le 29 septembre 2016 (GMT -0600)
San Jose Viejo | | Change Station

Alt. 194 ft 23.12 °N, 109.71 °W | Updated 42 seconds ago

Partly Cloudy
Partiellement nuageux
89.8 ° F
Paraît 98 ° F
N
1.0
Vent Variable Vent de ESE
Gusts 9.0 mph

Aujourd'hui
Haut(e) -- | Bas -- ° F
--% Risque de précip.
Hier
Haut(e) -- | Bas -- ° F
Precip. -- pouce
Pression 29.94 pouce
Visibilité 12.0 Miles terrestres
Nuages Peu 4000 ft
indice de chaleur 98 ° F
Point de rosée 73 ° F
Humidité 57%
Précipitations 0.00 pouce
Profondeur de la couche neigeuse Non disponible.
7:09 AM 7:07 PM
Lune descendante, 1% visible
METAR MMSD 292152Z 12010KT 12SM FEW040TCU 32/18 A2994 RMK 8/200 CI
Pression 29.94 pouce
Visibilité 12.0 Miles terrestres
Nuages Peu 4000 ft
indice de chaleur 98 ° F
Point de rosée 73 ° F
Humidité 57%
Précipitations 0.00 pouce
Profondeur de la couche neigeuse Non disponible.
7:09 AM 7:07 PM
Lune descendante, 1% visible
METAR MMSD 292152Z 12010KT 12SM FEW040TCU 32/18 A2994 RMK 8/200 CI

10-Day Weather Forecast

No radar image for this location.
×

Almanac

Astronomie

Sep. 29, 2016 Lever Coucher
Temps réel
Crépuscule civil
Crépuscule nautique
Crépuscule astronomique
Lune
Durée de lumière visible
Longueur du jour
Tomorrow will be .
, % of the Moon is Illuminated

Extrêmes aujourd'hui

Country Highs Country Lows

Community

WunderPhotos

Upload Photos

1,942,584 Photos téléchargées !

WunderBlog® & News

Nearby

Qualité de l'air

  Qualité de l'air Indice de la qualité de l'air Polluant
Not available.

Épaisseur de neige

Station Depth Altitude

Activité sismique

Ville Distance Mag. Time & Date
Minimum magnitude displayed is 2.5.

Températures des eaux côtières

Lieu Température

Stations

Stations météo à proximité

Emplacement de la station Température Refroidissement éolien Point de rosée Humidité Vent Precip. Alt. Mise à jour Type